Latest Weather Observations for Bourke

IDN60801

Issued at 11:34 am EST Wednesday 1 June 2016 (issued every 30 minutes, with the page automatically refreshed every 10 minutes)

About weather observations | Map of weather stations | Latest weather observations for NSW | Other Formats
Station Details ID: 048245 Name: BOURKE AIRPORT AWS Lat: -30.04 Lon: 145.95 Height: 107.3 m
Data from the previous 72 hours. | See also: Recent months at Bourke
Date/Time
EST
Temp
°C
App
Temp
°C
Dew
Point
Rel
Hum
%
Delta-T
°C
Wind Press
QNH
hPa
Press
MSL
hPa
Rain
since 9 am
mm
Dir
 
Spd
km/h
Gust
km/h
Spd
kts
Gust
kts
01/11:30am 19.3 16.2 7.4 46 6.1 ENE 13 20 7 11 1023.9 1023.9 0.0
01/11:00am 17.6 14.8 5.2 44 6.0 ESE 9 13 5 7 1024.4 1024.5 0.0
01/10:30am 17.1 14.3 5.1 45 5.8 E 9 15 5 8 1024.8 1024.9 0.0
01/10:00am 15.6 12.3 4.6 48 5.1 ENE 11 15 6 8 1024.8 1024.9 0.0
01/09:30am 14.5 10.4 4.5 51 4.7 ENE 15 20 8 11 1024.7 1024.6 0.0
01/09:00am 13.3 9.8 5.5 59 3.7 ENE 13 17 7 9 1024.4 1024.3 0.0
01/08:30am 10.9 7.3 4.8 66 2.8 E 13 17 7 9 1024.2 1024.1 0.0
01/08:00am 9.1 5.0 4.3 72 2.1 E 15 20 8 11 1024.3 1024.2 0.0
01/07:30am 6.4 3.8 4.4 87 0.9 E 7 11 4 6 1024.1 1024.0 0.0
01/07:00am 5.0 2.2 2.9 86 0.9 E 7 9 4 5 1023.9 1023.8 0.0
01/06:30am 5.2 2.4 3.2 87 0.8 ESE 7 9 4 5 1024.0 1023.9 0.0
01/06:00am 4.8 1.6 2.8 87 0.8 SE 9 9 5 5 1023.6 1023.5 0.0
01/05:30am 4.9 2.0 2.8 86 0.9 ESE 7 7 4 4 1023.4 1023.3 0.0
01/05:00am 5.4 1.9 3.4 87 0.8 ESE 11 13 6 7 1023.0 1022.9 0.0
01/04:30am 4.6 1.0 2.9 89 0.7 ESE 11 13 6 7 1023.0 1022.9 0.0
01/04:00am 4.4 1.5 2.4 87 0.8 SE 7 7 4 4 1023.3 1023.2 0.0
01/03:30am 4.8 2.1 2.5 85 0.9 S 6 7 3 4 1023.5 1023.4 0.0
01/03:00am 5.3 2.7 3.2 86 0.9 S 6 7 3 4 1023.5 1023.4 0.0
01/02:30am 4.8 1.9 2.8 87 0.8 SE 7 7 4 4 1023.4 1023.3 0.0
01/02:00am 5.2 3.6 2.7 84 1.0 CALM 0 0 0 0 1023.5 1023.4 0.0
01/01:30am 5.9 4.4 2.9 81 1.2 CALM 0 0 0 0 1023.7 1023.6 0.0
01/01:00am 6.6 3.8 3.0 78 1.5 ESE 7 7 4 4 1023.7 1023.6 0.0
01/12:30am 7.1 4.0 3.5 78 1.5 ESE 9 11 5 6 1023.8 1023.7 0.0
01/12:00am 7.0 3.5 3.3 77 1.6 SE 11 13 6 7 1024.1 1024.0 0.0
 
Date/Time
EST
Temp
°C
App
Temp
°C
Dew
Point
Rel
Hum
%
Delta-T
°C
Wind Press
QNH
hPa
Press
MSL
hPa
Rain
since 9 am
mm
Dir
 
Spd
km/h
Gust
km/h
Spd
kts
Gust
kts
31/11:30pm 7.6 4.8 2.9 72 2.0 SSE 7 9 4 5 1024.5 1024.4 0.0
31/11:00pm 9.0 5.6 4.0 71 2.2 SE 11 13 6 7 1024.7 1024.6 0.0
31/10:30pm 9.1 5.3 4.1 71 2.2 SE 13 15 7 8 1024.7 1024.6 0.0
31/10:00pm 9.1 6.1 3.9 70 2.3 SE 9 11 5 6 1025.0 1024.9 0.0
31/09:30pm 9.5 6.5 4.1 69 2.4 SE 9 11 5 6 1025.1 1025.0 0.0
31/09:00pm 10.0 6.6 4.2 67 2.6 SE 11 13 6 7 1024.9 1024.8 0.0
31/08:30pm 9.7 6.3 3.9 67 2.6 SE 11 13 6 7 1024.7 1024.6 0.0
31/08:00pm 11.2 8.3 4.4 63 3.1 SE 9 11 5 6 1024.6 1024.5 0.0
31/07:30pm 11.4 8.1 4.6 63 3.1 SSE 11 13 6 7 1024.5 1024.4 0.0
31/07:00pm 11.8 8.9 4.5 61 3.3 SSE 9 11 5 6 1024.5 1024.4 0.0
31/06:30pm 12.1 9.2 4.6 60 3.4 S 9 11 5 6 1024.2 1024.1 0.0
31/06:00pm 12.9 10.3 4.1 55 4.0 S 7 9 4 5 1023.9 1023.8 0.0
31/05:30pm 14.1 11.0 3.8 50 4.7 S 9 11 5 6 1023.6 1023.5 0.0
31/05:00pm 16.1 12.6 3.5 43 5.8 SSE 11 15 6 8 1023.5 1023.4 0.0
31/04:30pm 17.1 13.9 3.1 39 6.5 SSE 9 13 5 7 1023.4 1023.3 0.0
31/04:00pm 17.5 14.4 3.4 39 6.5 SSE 9 13 5 7 1023.4 1023.3 0.0
31/03:30pm 17.6 13.6 3.1 38 6.7 SSE 13 17 7 9 1023.4 1023.3 0.0
31/03:00pm 17.7 14.1 3.2 38 6.7 SSE 11 17 6 9 1023.5 1023.4 0.0
31/02:30pm 17.4 14.0 4.0 41 6.3 SE 11 17 6 9 1023.7 1023.6 0.0
31/02:00pm 17.4 14.0 4.0 41 6.3 S 11 17 6 9 1024.0 1023.9 0.0
31/01:30pm 16.6 13.6 4.0 43 5.9 SE 9 17 5 9 1024.5 1024.4 0.0
31/01:00pm 16.9 13.4 3.6 41 6.2 SSE 11 19 6 10 1025.1 1025.0 0.0
31/12:30pm 16.2 13.3 4.6 46 5.5 ESE 9 20 5 11 1025.6 1025.5 0.0
31/12:00pm 15.8 12.8 4.2 46 5.4 SE 9 15 5 8 1025.9 1025.8 0.0
31/11:30am 15.4 12.5 4.8 49 5.0 E 9 15 5 8 1026.4 1026.3 0.0
31/11:00am 14.8 11.1 4.5 50 4.8 ESE 13 20 7 11 1026.5 1026.4 0.0
31/10:30am 13.9 10.2 4.5 53 4.4 E 13 19 7 10 1027.0 1026.9 0.0
31/10:00am 12.5 8.8 4.7 59 3.6 E 13 15 7 8 1027.5 1027.4 0.0
31/09:30am 11.6 8.0 4.8 63 3.1 E 13 17 7 9 1027.7 1027.7 0.0
31/09:00am 10.0 7.1 4.8 70 2.3 E 9 13 5 7 1027.5 1027.4 0.0
31/08:30am 8.3 5.9 4.5 77 1.7 E 6 7 3 4 1027.5 1027.4 0.0
31/08:00am 6.0 4.0 4.5 90 0.6 S 4 7 2 4 1027.2 1027.1 0.0
31/07:30am 3.5 1.8 2.0 90 0.6 CALM 0 0 0 0 1026.7 1026.6 0.0
31/07:00am 4.2 1.3 2.6 89 0.6 SE 7 7 4 4 1026.2 1026.1 0.0
31/06:30am 4.3 1.4 2.7 89 0.7 ESE 7 9 4 5 1025.9 1025.8 0.0
31/06:00am 5.3 1.9 4.0 91 0.5 SE 11 13 6 7 1025.7 1025.6 0.0
31/05:30am 4.2 1.3 2.6 89 0.6 E 7 9 4 5 1025.5 1025.4 0.0
31/05:00am 4.9 2.1 3.1 88 0.7 SE 7 9 4 5 1025.5 1025.4 0.0
31/04:30am 5.3 2.2 3.5 88 0.8 SE 9 11 5 6 1025.2 1025.1 0.0
31/04:00am 5.3 2.1 3.2 86 0.9 ESE 9 11 5 6 1025.2 1025.1 0.0
31/03:30am 6.0 2.9 3.7 85 1.0 ESE 9 11 5 6 1025.1 1025.0 0.0
31/03:00am 5.6 2.8 3.3 85 1.0 E 7 9 4 5 1025.2 1025.1 0.0
31/02:30am 5.8 3.0 3.1 83 1.1 E 7 9 4 5 1025.1 1025.0 0.0
31/02:00am 6.2 3.1 3.5 83 1.1 E 9 11 5 6 1025.1 1025.0 0.0
31/01:30am 6.7 3.6 3.5 80 1.4 E 9 9 5 5 1025.1 1025.0 0.0
31/01:00am 7.7 4.6 3.6 75 1.8 E 9 11 5 6 1025.1 1025.0 0.0
31/12:30am 9.0 5.2 4.0 71 2.2 E 13 17 7 9 1025.2 1025.1 0.0
31/12:00am 8.8 5.4 3.8 71 2.2 ESE 11 13 6 7 1025.4 1025.3 0.0
 
Date/Time
EST
Temp
°C
App
Temp
°C
Dew
Point
Rel
Hum
%
Delta-T
°C
Wind Press
QNH
hPa
Press
MSL
hPa
Rain
since 9 am
mm
Dir
 
Spd
km/h
Gust
km/h
Spd
kts
Gust
kts
30/11:30pm 9.7 5.6 4.1 68 2.5 ESE 15 19 8 10 1025.5 1025.4 0.0
30/11:00pm 10.2 6.1 4.6 68 2.5 E 15 19 8 10 1025.7 1025.6 0.0
30/10:30pm 10.1 6.1 4.9 70 2.4 ESE 15 20 8 11 1025.4 1025.3 0.0
30/10:00pm 9.5 5.8 4.7 72 2.1 ESE 13 15 7 8 1025.6 1025.5 0.0
30/09:30pm 10.0 6.4 5.2 72 2.2 ESE 13 15 7 8 1025.8 1025.7 0.0
30/09:00pm 9.8 6.9 4.8 71 2.2 SE 9 11 5 6 1025.9 1025.8 0.0
30/08:30pm 9.9 6.7 4.9 71 2.3 ESE 11 13 6 7 1025.4 1025.3 0.0
30/08:00pm 10.3 7.2 5.7 73 2.1 ESE 11 13 6 7 1025.0 1024.9 0.0
30/07:30pm 9.5 7.1 5.1 74 2.0 SE 7 9 4 5 1024.7 1024.6 0.0
30/07:00pm 10.8 8.1 5.6 70 2.4 SE 9 11 5 6 1024.3 1024.2 0.0
30/06:30pm 11.2 8.8 5.3 67 2.7 ESE 7 7 4 4 1024.4 1024.3 0.0
30/06:00pm 12.7 10.5 5.4 61 3.4 ESE 6 7 3 4 1024.2 1024.1 0.0
30/05:30pm 14.0 11.8 5.1 55 4.2 ESE 6 7 3 4 1023.9 1023.8 0.0
30/05:00pm 16.2 13.7 4.9 47 5.4 E 7 9 4 5 1023.4 1023.3 0.0
30/04:30pm 16.9 14.2 3.9 42 6.1 E 7 11 4 6 1023.3 1023.2 0.0
30/04:00pm 17.1 13.3 4.1 42 6.1 E 13 15 7 8 1023.0 1022.9 0.0
30/03:30pm 17.3 14.3 4.3 42 6.2 NNE 9 17 5 9 1022.9 1022.8 0.0
30/03:00pm 17.5 14.6 4.5 42 6.2 NNE 9 17 5 9 1023.2 1023.1 0.0
30/02:30pm 17.6 14.7 4.9 43 6.1 NE 9 17 5 9 1023.3 1023.2 0.0
30/02:00pm 17.0 14.5 3.7 41 6.2 ENE 6 11 3 6 1023.5 1023.4 0.0
30/01:30pm 16.9 14.1 5.2 46 5.6 NE 9 17 5 9 1023.6 1023.5 0.0
30/01:00pm 16.6 13.4 4.9 46 5.6 ENE 11 19 6 10 1024.0 1023.9 0.0
30/12:30pm 16.0 12.7 4.7 47 5.3 NE 11 17 6 9 1024.5 1024.4 0.0
30/12:00pm 16.0 12.4 5.0 48 5.2 NE 13 20 7 11 1025.0 1024.9 0.0
30/11:30am 15.2 10.7 4.3 48 5.1 NE 17 24 9 13 1025.4 1025.3 0.0
30/11:00am 15.2 10.8 4.9 50 4.8 ENE 17 24 9 13 1025.4 1025.3 0.0
30/10:30am 14.0 9.3 5.1 55 4.2 ENE 19 24 10 13 1025.7 1025.6 0.0
30/10:00am 12.7 8.3 4.9 59 3.6 ENE 17 20 9 11 1025.7 1025.6 0.0
30/09:30am 11.4 6.7 5.1 65 2.9 ENE 19 26 10 14 1025.8 1025.7 0.0
30/09:00am 10.0 5.7 5.2 72 2.2 ENE 17 20 9 11 1025.6 1025.5 0.0
30/08:30am 9.0 5.4 5.0 76 1.8 ENE 13 19 7 10 1025.1 1025.0 0.0
30/08:00am 7.5 4.6 4.8 83 1.2 E 9 13 5 7 1024.8 1024.7 0.0
30/07:30am 5.5 2.4 3.8 89 0.7 E 9 11 5 6 1024.5 1024.4 0.0
30/07:00am 5.3 1.8 3.3 87 0.8 ENE 11 11 6 6 1024.1 1024.0 0.0
30/06:30am 5.9 2.5 3.9 87 0.9 E 11 13 6 7 1023.8 1023.7 0.0
30/06:00am 6.4 3.4 3.9 84 1.1 E 9 13 5 7 1023.5 1023.4 0.0
30/05:30am 7.3 3.6 4.4 82 1.3 E 13 19 7 10 1023.3 1023.2 0.0
30/05:00am 7.2 3.5 4.5 83 1.2 E 13 17 7 9 1022.9 1022.8 0.0
30/04:30am 6.7 3.0 4.5 86 1.0 ENE 13 15 7 8 1022.7 1022.6 0.0
30/04:00am 6.8 3.2 4.8 87 0.9 E 13 15 7 8 1022.5 1022.4 0.0
30/03:30am 6.9 3.7 5.1 88 0.8 E 11 15 6 8 1022.4 1022.3 0.0
30/03:00am 6.6 3.9 5.4 92 0.5 E 9 11 5 6 1022.4 1022.3 0.0
30/02:30am 5.8 3.2 4.0 88 0.8 ESE 7 9 4 5 1022.2 1022.1 0.0
30/02:00am 6.9 4.1 5.1 88 0.8 SE 9 9 5 5 1022.3 1022.2 0.0
30/01:30am 6.4 3.8 4.4 87 0.9 ENE 7 9 4 5 1022.3 1022.2 0.0
30/01:00am 7.2 4.0 5.2 87 0.9 ESE 11 11 6 6 1022.2 1022.1 0.0
30/12:30am 7.3 4.5 5.3 87 0.9 ESE 9 11 5 6 1022.3 1022.2 0.0
30/12:00am 7.8 5.1 5.4 85 1.1 SE 9 11 5 6 1022.4 1022.3 0.0
 
Date/Time
EST
Temp
°C
App
Temp
°C
Dew
Point
Rel
Hum
%
Delta-T
°C
Wind Press
QNH
hPa
Press
MSL
hPa
Rain
since 9 am
mm
Dir
 
Spd
km/h
Gust
km/h
Spd
kts
Gust
kts
29/11:30pm 8.2 5.5 5.8 85 1.1 SSE 9 13 5 7 1022.3 1022.2 0.0
29/11:00pm 8.2 5.4 5.3 82 1.3 SE 9 9 5 5 1022.5 1022.4 0.0
29/10:30pm 9.2 6.5 5.6 78 1.6 SE 9 11 5 6 1022.5 1022.4 0.0
29/10:00pm 9.7 7.0 5.5 75 1.9 SE 9 13 5 7 1022.5 1022.4 0.0
29/09:30pm 11.0 8.0 6.2 72 2.3 SSE 11 15 6 8 1022.5 1022.4 0.0
29/09:00pm 10.5 7.4 5.7 72 2.2 S 11 13 6 7 1022.4 1022.3 0.0
29/08:30pm 11.0 8.3 5.7 70 2.5 SSE 9 11 5 6 1022.2 1022.1 0.0
29/08:00pm 11.3 8.6 5.8 69 2.6 SSE 9 11 5 6 1022.0 1021.9 0.0
29/07:30pm 11.6 9.0 6.1 69 2.6 SSE 9 11 5 6 1021.8 1021.7 0.0
29/07:00pm 12.2 10.0 6.0 66 2.9 SSE 7 9 4 5 1021.5 1021.4 0.0
29/06:30pm 12.5 9.9 6.1 65 3.0 SSE 9 11 5 6 1021.3 1021.2 0.0
29/06:00pm 13.3 10.7 5.9 61 3.5 SSE 9 11 5 6 1020.9 1020.8 0.0
29/05:30pm 14.5 12.4 5.8 56 4.2 S 6 7 3 4 1020.8 1020.7 0.0
29/05:00pm 15.9 13.2 5.8 51 4.9 SSW 9 11 5 6 1020.6 1020.5 0.0
29/04:30pm 16.9 14.6 5.5 47 5.5 SW 7 11 4 6 1020.4 1020.3 0.0
29/04:00pm 16.6 12.9 4.6 45 5.7 SSW 13 17 7 9 1020.3 1020.2 0.0
29/03:30pm 17.1 14.3 5.1 45 5.8 SSW 9 15 5 8 1020.2 1020.1 0.0
29/03:00pm 17.4 14.0 5.7 46 5.7 SSE 13 17 7 9 1020.0 1019.9 0.0
29/02:30pm 17.6 15.0 6.2 47 5.6 SSE 9 19 5 10 1020.0 1019.9 0.0
29/02:00pm 16.7 14.1 4.4 44 5.8 ESE 7 11 4 6 1019.9 1019.8 0.0
29/01:30pm 16.1 13.2 4.8 47 5.4 SW 9 15 5 8 1020.2 1020.1 0.0
29/01:00pm 17.7 14.8 6.6 48 5.5 S 11 17 6 9 1020.4 1020.3 0.0
29/12:30pm 16.9 14.7 5.2 46 5.6 WSW 6 11 3 6 1020.8 1020.7 0.0
29/12:00pm 15.5 13.6 5.1 50 4.9 WNW 4 7 2 4 1021.2 1021.1 0.0

Other Formats:

Comma delimited format used in spreadsheet applications
http://www.bom.gov.au/fwo/IDN60801/IDN60801.94703.axf

JavaScript Object Notation format (JSON) in row-major order
http://www.bom.gov.au/fwo/IDN60801/IDN60801.94703.json